createdAt,value
2022-09-11T00:01:29.107Z,13.61
2022-09-11T00:03:56.422Z,13.60
2022-09-11T00:06:29.930Z,13.57
2022-09-11T00:09:02.473Z,13.56
2022-09-11T00:11:34.947Z,13.53
2022-09-11T00:14:01.803Z,13.50
2022-09-11T00:16:37.716Z,13.46
2022-09-11T00:19:07.531Z,13.43
2022-09-11T00:21:34.312Z,13.42
2022-09-11T00:24:01.170Z,13.40
2022-09-11T00:26:28.006Z,13.37
2022-09-11T00:28:55.225Z,13.34
2022-09-11T00:31:27.772Z,13.32
2022-09-11T00:33:55.028Z,13.30
2022-09-11T00:36:24.621Z,13.29
2022-09-11T00:38:52.056Z,13.26
2022-09-11T00:41:34.221Z,13.25
2022-09-11T00:44:18.673Z,13.19
2022-09-11T00:46:56.685Z,13.17
2022-09-11T00:49:43.351Z,13.13
2022-09-11T00:52:13.885Z,13.07
2022-09-11T00:54:49.496Z,13.00
2022-09-11T00:57:23.791Z,12.99
2022-09-11T00:59:52.847Z,13.01
2022-09-11T01:02:26.737Z,12.99
2022-09-11T01:04:54.840Z,12.97
2022-09-11T01:07:22.874Z,12.95
2022-09-11T01:09:51.103Z,12.91
2022-09-11T01:12:33.603Z,12.88
2022-09-11T01:15:03.644Z,12.86
2022-09-11T01:17:47.905Z,12.87
2022-09-11T01:20:47.832Z,12.83
2022-09-11T01:23:51.944Z,12.77
2022-09-11T01:26:32.412Z,12.72
2022-09-11T01:29:20.928Z,12.69
2022-09-11T01:32:03.435Z,12.70
2022-09-11T01:35:01.754Z,12.65
2022-09-11T01:37:38.702Z,12.64
2022-09-11T01:40:13.094Z,12.61
2022-09-11T01:42:44.671Z,12.64
2022-09-11T01:45:14.056Z,12.61
2022-09-11T01:47:42.709Z,12.61
2022-09-11T01:50:14.040Z,12.59
2022-09-11T01:52:58.074Z,12.57
2022-09-11T01:55:39.136Z,12.54
2022-09-11T01:58:13.058Z,12.48
2022-09-11T02:00:46.354Z,12.48
2022-09-11T02:03:24.750Z,12.47
2022-09-11T02:05:59.824Z,12.46
2022-09-11T02:08:36.092Z,12.47
2022-09-11T02:11:09.004Z,12.44
2022-09-11T02:13:59.330Z,12.41
2022-09-11T02:16:47.392Z,12.36
2022-09-11T02:19:16.982Z,12.30
2022-09-11T02:21:44.605Z,12.30
2022-09-11T02:24:11.082Z,12.28
2022-09-11T02:26:42.747Z,12.29
2022-09-11T02:29:10.286Z,12.22
2022-09-11T02:31:37.293Z,12.17
2022-09-11T02:34:03.793Z,12.16
2022-09-11T02:36:36.331Z,12.11
2022-09-11T02:39:26.177Z,12.10
2022-09-11T02:42:15.676Z,12.06
2022-09-11T02:45:08.780Z,12.06
2022-09-11T02:48:02.038Z,12.06
2022-09-11T02:50:45.543Z,12.04
2022-09-11T02:53:27.262Z,12.02
2022-09-11T02:56:13.049Z,12.03
2022-09-11T02:58:57.130Z,12.04
2022-09-11T03:01:25.579Z,12.07
2022-09-11T03:03:52.264Z,12.06
2022-09-11T03:06:22.116Z,12.07
2022-09-11T03:08:49.205Z,12.08
2022-09-11T03:11:20.462Z,12.08
2022-09-11T03:13:48.953Z,12.08
2022-09-11T03:16:16.323Z,12.04
2022-09-11T03:18:44.375Z,11.99
2022-09-11T03:21:11.713Z,11.96
2022-09-11T03:23:38.517Z,11.93
2022-09-11T03:26:05.388Z,11.88
2022-09-11T03:28:32.039Z,11.86
2022-09-11T03:30:59.167Z,11.85
2022-09-11T03:33:26.356Z,11.85
2022-09-11T03:35:52.859Z,11.85
2022-09-11T03:38:20.500Z,11.81
2022-09-11T03:40:47.508Z,11.82
2022-09-11T03:43:16.508Z,11.82
2022-09-11T03:45:44.642Z,11.81
2022-09-11T03:48:13.247Z,11.79
2022-09-11T03:50:40.042Z,11.76
2022-09-11T03:53:06.603Z,11.76
2022-09-11T03:55:33.151Z,11.73
2022-09-11T03:58:00.172Z,11.70
2022-09-11T04:00:26.725Z,11.70
2022-09-11T04:02:56.075Z,11.68
2022-09-11T04:05:31.347Z,11.66
2022-09-11T04:08:00.027Z,11.64
2022-09-11T04:10:27.837Z,11.63
2022-09-11T04:12:56.587Z,11.61
2022-09-11T04:15:23.008Z,11.54
2022-09-11T04:17:49.439Z,11.50
2022-09-11T04:20:16.800Z,11.49
2022-09-11T04:22:45.196Z,11.48
2022-09-11T04:25:12.503Z,11.39
2022-09-11T04:27:39.575Z,11.40
2022-09-11T04:30:07.156Z,11.40
2022-09-11T04:32:34.196Z,11.44
2022-09-11T04:35:01.780Z,11.46
2022-09-11T04:37:35.361Z,11.44
2022-09-11T04:40:02.748Z,11.41
2022-09-11T04:42:30.799Z,11.40
2022-09-11T04:44:57.841Z,11.40
2022-09-11T04:47:24.232Z,11.36
2022-09-11T04:49:50.615Z,11.36
2022-09-11T04:52:17.095Z,11.36
2022-09-11T04:54:43.519Z,11.36
2022-09-11T04:57:10.231Z,11.35
2022-09-11T04:59:37.265Z,11.39
2022-09-11T05:02:06.264Z,11.41
2022-09-11T05:04:37.289Z,11.39
2022-09-11T05:07:03.831Z,11.35
2022-09-11T05:09:30.236Z,11.31
2022-09-11T05:11:58.162Z,11.27
2022-09-11T05:14:29.168Z,11.24
2022-09-11T05:16:56.022Z,11.24
2022-09-11T05:19:25.537Z,11.24
2022-09-11T05:21:51.983Z,11.26
2022-09-11T05:24:18.451Z,11.27
2022-09-11T05:26:44.903Z,11.28
2022-09-11T05:29:14.080Z,11.27
2022-09-11T05:32:01.201Z,11.30
2022-09-11T05:34:29.485Z,11.36
2022-09-11T05:36:57.349Z,11.42
2022-09-11T05:39:26.317Z,11.44
2022-09-11T05:41:55.325Z,11.46
2022-09-11T05:44:24.100Z,11.44
2022-09-11T05:46:51.557Z,11.46
2022-09-11T05:49:19.280Z,11.52
2022-09-11T05:51:46.674Z,11.58
2022-09-11T05:54:13.110Z,11.63
2022-09-11T05:56:41.419Z,11.68
2022-09-11T05:59:14.584Z,11.74
2022-09-11T06:01:43.119Z,11.76
2022-09-11T06:04:19.780Z,11.77
2022-09-11T06:06:48.492Z,11.80
2022-09-11T06:09:16.074Z,11.87
2022-09-11T06:11:42.912Z,11.90
2022-09-11T06:14:09.879Z,11.93
2022-09-11T06:16:36.298Z,12.00
2022-09-11T06:19:09.999Z,12.05
2022-09-11T06:21:36.783Z,12.07
2022-09-11T06:24:13.709Z,12.13
2022-09-11T06:26:40.215Z,12.21
2022-09-11T06:29:07.694Z,12.28
2022-09-11T06:31:36.110Z,12.37
2022-09-11T06:34:02.551Z,12.44
2022-09-11T06:36:31.865Z,12.57
2022-09-11T06:39:02.222Z,12.63
2022-09-11T06:41:28.967Z,12.76
2022-09-11T06:44:02.410Z,12.92
2022-09-11T06:46:31.749Z,12.99
2022-09-11T06:49:00.419Z,13.11
2022-09-11T06:51:28.542Z,13.23
2022-09-11T06:53:58.410Z,13.35
2022-09-11T06:56:32.296Z,13.45
2022-09-11T06:59:00.364Z,13.56
2022-09-11T07:01:28.383Z,13.67
2022-09-11T07:03:59.490Z,13.83
2022-09-11T07:06:28.656Z,13.91
2022-09-11T07:09:00.805Z,14.00
2022-09-11T07:11:34.516Z,14.12
2022-09-11T07:14:05.682Z,14.26
2022-09-11T07:16:36.531Z,14.34
2022-09-11T07:19:09.429Z,14.45
2022-09-11T07:21:38.356Z,14.54
2022-09-11T07:24:05.898Z,14.62
2022-09-11T07:26:36.321Z,14.62
2022-09-11T07:29:12.625Z,14.66
2022-09-11T07:31:39.680Z,14.82
2022-09-11T07:34:06.566Z,14.99
2022-09-11T07:36:34.898Z,15.04
2022-09-11T07:39:04.316Z,15.13
2022-09-11T07:41:36.099Z,15.28
2022-09-11T07:44:09.107Z,15.41
2022-09-11T07:46:36.279Z,15.63
2022-09-11T07:49:07.705Z,15.90
2022-09-11T07:51:34.900Z,16.13
2022-09-11T07:54:04.337Z,16.24
2022-09-11T07:56:34.001Z,16.36
2022-09-11T07:59:02.549Z,16.41
2022-09-11T08:01:31.066Z,16.54
2022-09-11T08:04:00.329Z,16.66
2022-09-11T08:06:29.866Z,16.84
2022-09-11T08:09:01.931Z,16.86
2022-09-11T08:11:34.680Z,16.99
2022-09-11T08:14:01.256Z,17.12
2022-09-11T08:16:29.739Z,17.28
2022-09-11T08:18:59.883Z,17.52
2022-09-11T08:21:26.377Z,17.70
2022-09-11T08:23:52.877Z,17.87
2022-09-11T08:26:24.715Z,18.04
2022-09-11T08:28:54.560Z,18.25
2022-09-11T08:31:27.818Z,18.51
2022-09-11T08:33:57.183Z,18.65
2022-09-11T08:36:24.187Z,18.82
2022-09-11T08:38:52.565Z,18.95
2022-09-11T08:41:24.742Z,19.15
2022-09-11T08:43:56.633Z,19.23
2022-09-11T08:46:26.715Z,19.26
2022-09-11T08:49:37.946Z,19.20
2022-09-11T08:52:08.472Z,19.01
2022-09-11T08:54:37.970Z,19.06
2022-09-11T08:57:19.843Z,19.24
2022-09-11T09:00:02.038Z,19.10
2022-09-11T09:02:51.895Z,19.32
2022-09-11T09:05:28.186Z,19.62
2022-09-11T09:08:14.485Z,20.10
2022-09-11T09:11:04.937Z,20.36
2022-09-11T09:13:42.687Z,20.62
2022-09-11T09:16:48.992Z,20.81
2022-09-11T09:19:23.456Z,21.04
2022-09-11T09:21:56.085Z,21.18
2022-09-11T09:24:23.197Z,21.35
2022-09-11T09:26:56.131Z,21.36
2022-09-11T09:29:28.413Z,21.27
2022-09-11T09:32:04.197Z,21.17
2022-09-11T09:34:37.362Z,21.34
2022-09-11T09:37:20.379Z,21.43
2022-09-11T09:39:47.955Z,21.20
2022-09-11T09:42:41.220Z,20.87
2022-09-11T09:45:48.916Z,20.73
2022-09-11T09:48:15.762Z,21.24
2022-09-11T09:50:45.807Z,21.70
2022-09-11T09:53:38.876Z,21.86
2022-09-11T09:56:05.976Z,21.59
2022-09-11T09:58:39.142Z,21.50
2022-09-11T10:01:47.853Z,21.56
2022-09-11T10:04:16.053Z,21.95
2022-09-11T10:06:45.416Z,21.84
2022-09-11T10:09:21.343Z,22.04
2022-09-11T10:11:52.916Z,22.24
2022-09-11T10:14:49.426Z,22.36
2022-09-11T10:17:23.480Z,22.05
2022-09-11T10:19:53.212Z,22.23
2022-09-11T10:22:22.299Z,22.28
2022-09-11T10:25:12.795Z,22.56
2022-09-11T10:27:45.573Z,22.46
2022-09-11T10:30:36.680Z,22.21
2022-09-11T10:33:07.270Z,21.96
2022-09-11T10:35:35.604Z,21.95
2022-09-11T10:38:17.854Z,21.85
2022-09-11T10:41:14.217Z,21.99
2022-09-11T10:43:50.174Z,22.18
2022-09-11T10:46:19.260Z,22.01
2022-09-11T10:48:57.827Z,22.09
2022-09-11T10:51:26.748Z,22.17
2022-09-11T10:54:30.790Z,22.13
2022-09-11T10:57:00.099Z,22.56
2022-09-11T10:59:40.754Z,22.80
2022-09-11T11:02:20.691Z,22.94
2022-09-11T11:04:48.353Z,23.05
2022-09-11T11:07:34.324Z,22.98
2022-09-11T11:10:15.715Z,23.00
2022-09-11T11:13:04.932Z,23.02
2022-09-11T11:15:49.818Z,23.25
2022-09-11T11:18:41.916Z,23.45
2022-09-11T11:21:27.467Z,23.38
2022-09-11T11:24:17.604Z,23.46
2022-09-11T11:26:53.842Z,23.56
2022-09-11T11:29:20.360Z,23.71
2022-09-11T11:31:55.598Z,23.76
2022-09-11T11:35:01.244Z,23.91
2022-09-11T11:37:36.772Z,23.91
2022-09-11T11:40:10.317Z,23.81
2022-09-11T11:42:46.719Z,23.73
2022-09-11T11:45:32.941Z,23.35
2022-09-11T11:48:05.745Z,23.05
2022-09-11T11:50:43.367Z,22.84
2022-09-11T11:53:20.838Z,22.54
2022-09-11T11:56:08.571Z,22.65
2022-09-11T11:58:50.115Z,22.72
2022-09-11T12:01:37.052Z,22.65
2022-09-11T12:04:06.145Z,22.42
2022-09-11T12:06:32.503Z,22.33
2022-09-11T12:08:59.266Z,22.48
2022-09-11T12:11:31.378Z,22.51
2022-09-11T12:13:58.972Z,22.51
2022-09-11T12:16:28.833Z,22.51
2022-09-11T12:19:01.191Z,22.43
2022-09-11T12:21:31.400Z,22.48
2022-09-11T12:23:57.723Z,22.49
2022-09-11T12:26:28.651Z,22.50
2022-09-11T12:29:24.312Z,22.54
2022-09-11T12:31:50.658Z,22.48
2022-09-11T12:34:38.712Z,22.41
2022-09-11T12:37:11.555Z,22.26
2022-09-11T12:39:53.212Z,22.19
2022-09-11T12:42:25.371Z,22.15
2022-09-11T12:44:51.856Z,22.11
2022-09-11T12:47:23.255Z,22.10
2022-09-11T12:49:55.300Z,22.15
2022-09-11T12:52:31.541Z,21.98
2022-09-11T12:55:06.661Z,21.86
2022-09-11T12:57:38.001Z,21.71
2022-09-11T13:00:11.682Z,21.61
2022-09-11T13:02:43.224Z,21.57
2022-09-11T13:05:28.235Z,21.55
2022-09-11T13:08:00.591Z,21.56
2022-09-11T13:10:36.528Z,21.47
2022-09-11T13:13:35.596Z,21.41
2022-09-11T13:16:18.901Z,21.45
2022-09-11T13:18:45.447Z,21.50
2022-09-11T13:21:11.757Z,21.49
2022-09-11T13:23:38.203Z,21.46
2022-09-11T13:26:06.374Z,21.45
2022-09-11T13:28:43.733Z,21.59
2022-09-11T13:31:28.914Z,21.54
2022-09-11T13:33:55.344Z,21.47
2022-09-11T13:36:24.636Z,21.54
2022-09-11T13:39:02.070Z,21.48
2022-09-11T13:41:39.888Z,21.39
2022-09-11T13:44:12.391Z,21.45
2022-09-11T13:46:51.056Z,21.48
2022-09-11T13:49:17.380Z,21.57
2022-09-11T13:51:46.486Z,21.60
2022-09-11T13:54:17.119Z,21.60
2022-09-11T13:57:11.539Z,21.63
2022-09-11T13:59:44.686Z,21.64
2022-09-11T14:02:37.795Z,21.65
2022-09-11T14:05:07.197Z,21.72
2022-09-11T14:07:40.929Z,21.64
2022-09-11T14:10:18.117Z,21.67
2022-09-11T14:12:57.546Z,21.69
2022-09-11T14:15:37.747Z,21.61
2022-09-11T14:18:06.448Z,21.52
2022-09-11T14:20:33.355Z,21.49
2022-09-11T14:23:05.199Z,21.61
2022-09-11T14:25:32.845Z,21.62
2022-09-11T14:27:59.745Z,21.54
2022-09-11T14:30:37.452Z,21.49
2022-09-11T14:33:16.469Z,21.46
2022-09-11T14:35:45.677Z,21.50
2022-09-11T14:38:14.181Z,21.59
2022-09-11T14:40:58.914Z,21.64
2022-09-11T14:43:31.070Z,21.60
2022-09-11T14:45:58.550Z,21.72
2022-09-11T14:48:30.343Z,21.80
2022-09-11T14:50:57.404Z,21.78
2022-09-11T14:53:31.346Z,21.83
2022-09-11T14:55:59.936Z,21.82
2022-09-11T14:58:27.628Z,21.82
2022-09-11T15:00:55.167Z,21.88
2022-09-11T15:03:22.834Z,21.85
2022-09-11T15:05:54.204Z,21.84
2022-09-11T15:08:20.760Z,21.80
2022-09-11T15:10:48.684Z,21.80
2022-09-11T15:13:15.309Z,21.74
2022-09-11T15:15:42.335Z,21.69
2022-09-11T15:18:09.314Z,21.66
2022-09-11T15:20:36.459Z,21.58
2022-09-11T15:23:03.374Z,21.58
2022-09-11T15:25:29.855Z,21.55
2022-09-11T15:27:56.335Z,21.55
2022-09-11T15:30:22.754Z,21.54
2022-09-11T15:32:49.226Z,21.52
2022-09-11T15:35:18.192Z,21.50
2022-09-11T15:37:46.797Z,21.49
2022-09-11T15:40:13.663Z,21.49
2022-09-11T15:42:40.203Z,21.46
2022-09-11T15:45:07.811Z,21.49
2022-09-11T15:47:34.241Z,21.48
2022-09-11T15:50:00.823Z,21.45
2022-09-11T15:52:27.331Z,21.48
2022-09-11T15:54:53.729Z,21.44
2022-09-11T15:57:20.298Z,21.41
2022-09-11T15:59:46.725Z,21.38
2022-09-11T16:02:13.210Z,21.38
2022-09-11T16:04:39.692Z,21.35
2022-09-11T16:07:06.158Z,21.34
2022-09-11T16:09:32.978Z,21.34
2022-09-11T16:12:01.580Z,21.30
2022-09-11T16:14:32.499Z,21.32
2022-09-11T16:17:00.363Z,21.26
2022-09-11T16:19:28.199Z,21.22
2022-09-11T16:21:57.017Z,21.14
2022-09-11T16:24:25.867Z,21.09
2022-09-11T16:26:56.630Z,21.06
2022-09-11T16:29:25.540Z,20.98
2022-09-11T16:31:51.979Z,20.85
2022-09-11T16:34:18.375Z,20.80
2022-09-11T16:36:45.737Z,20.71
2022-09-11T16:39:15.239Z,20.67
2022-09-11T16:41:42.193Z,20.64
2022-09-11T16:44:11.672Z,20.62
2022-09-11T16:46:39.600Z,20.55
2022-09-11T16:49:06.495Z,20.54
2022-09-11T16:51:34.060Z,20.52
2022-09-11T16:54:01.000Z,20.48
2022-09-11T16:56:27.649Z,20.41
2022-09-11T16:58:54.652Z,20.38
2022-09-11T17:01:26.104Z,20.33
2022-09-11T17:03:56.519Z,20.28
2022-09-11T17:06:29.227Z,20.22
2022-09-11T17:08:59.075Z,20.16
2022-09-11T17:11:27.263Z,20.09
2022-09-11T17:13:54.008Z,20.06
2022-09-11T17:16:24.755Z,20.01
2022-09-11T17:18:53.935Z,19.94
2022-09-11T17:21:23.916Z,19.88
2022-09-11T17:23:52.050Z,19.79
2022-09-11T17:26:18.725Z,19.73
2022-09-11T17:28:48.151Z,19.72
2022-09-11T17:31:16.221Z,19.68
2022-09-11T17:33:43.319Z,19.63
2022-09-11T17:36:11.116Z,19.59
2022-09-11T17:38:39.324Z,19.54
2022-09-11T17:41:07.988Z,19.47
2022-09-11T17:43:36.536Z,19.42
2022-09-11T17:46:11.907Z,19.35
2022-09-11T17:48:39.816Z,19.26
2022-09-11T17:51:16.225Z,19.19
2022-09-11T17:53:44.789Z,19.00
2022-09-11T17:56:16.576Z,18.92
2022-09-11T17:58:44.789Z,18.84
2022-09-11T18:01:16.598Z,18.78
2022-09-11T18:03:44.180Z,18.73
2022-09-11T18:06:27.686Z,18.63
2022-09-11T18:08:56.884Z,18.56
2022-09-11T18:11:24.282Z,18.54
2022-09-11T18:13:51.216Z,18.49
2022-09-11T18:16:17.809Z,18.44
2022-09-11T18:18:44.400Z,18.37
2022-09-11T18:21:11.682Z,18.29
2022-09-11T18:23:43.641Z,18.26
2022-09-11T18:26:19.912Z,18.22
2022-09-11T18:28:49.227Z,18.09
2022-09-11T18:31:16.552Z,17.99
2022-09-11T18:33:43.016Z,17.95
2022-09-11T18:36:10.200Z,17.90
2022-09-11T18:38:37.422Z,17.85
2022-09-11T18:41:04.418Z,17.74
2022-09-11T18:43:30.801Z,17.71
2022-09-11T18:46:01.816Z,17.67
2022-09-11T18:48:28.225Z,17.60
2022-09-11T18:50:54.836Z,17.56
2022-09-11T18:53:22.165Z,17.53
2022-09-11T18:56:00.157Z,17.51
2022-09-11T18:58:35.520Z,17.43
2022-09-11T19:01:13.320Z,17.34
2022-09-11T19:03:41.781Z,17.31
2022-09-11T19:06:11.640Z,17.23
2022-09-11T19:08:40.309Z,17.17
2022-09-11T19:11:09.316Z,17.10
2022-09-11T19:13:36.590Z,17.07
2022-09-11T19:16:04.518Z,17.05
2022-09-11T19:18:31.755Z,17.00
2022-09-11T19:21:00.401Z,16.95
2022-09-11T19:23:31.471Z,16.92
2022-09-11T19:26:03.263Z,16.87
2022-09-11T19:28:31.326Z,16.77
2022-09-11T19:31:00.593Z,16.73
2022-09-11T19:33:30.322Z,16.71
2022-09-11T19:36:00.163Z,16.63
2022-09-11T19:38:26.743Z,16.57
2022-09-11T19:40:53.213Z,16.53
2022-09-11T19:43:24.776Z,16.50
2022-09-11T19:45:51.579Z,16.46
2022-09-11T19:48:18.358Z,16.41
2022-09-11T19:50:45.546Z,16.38
2022-09-11T19:53:11.972Z,16.29
2022-09-11T19:55:38.391Z,16.18
2022-09-11T19:58:04.887Z,16.12
2022-09-11T20:00:31.393Z,16.10
2022-09-11T20:02:57.915Z,16.10
2022-09-11T20:05:24.369Z,16.06
2022-09-11T20:07:51.536Z,16.00
2022-09-11T20:10:17.942Z,15.98
2022-09-11T20:12:44.339Z,15.91
2022-09-11T20:15:11.153Z,15.85
2022-09-11T20:17:37.563Z,15.86
2022-09-11T20:20:04.056Z,15.83
2022-09-11T20:22:30.486Z,15.80
2022-09-11T20:24:57.110Z,15.77
2022-09-11T20:27:23.534Z,15.76
2022-09-11T20:29:50.014Z,15.66
2022-09-11T20:32:17.986Z,15.61
2022-09-11T20:34:44.389Z,15.59
2022-09-11T20:37:10.874Z,15.57
2022-09-11T20:39:38.542Z,15.56
2022-09-11T20:42:05.528Z,15.53
2022-09-11T20:44:36.745Z,15.49
2022-09-11T20:47:03.602Z,15.46
2022-09-11T20:49:30.965Z,15.39
2022-09-11T20:51:57.411Z,15.33
2022-09-11T20:54:23.792Z,15.27
2022-09-11T20:56:50.213Z,15.22
2022-09-11T20:59:17.450Z,15.18
2022-09-11T21:01:43.942Z,15.19
2022-09-11T21:04:10.522Z,15.17
2022-09-11T21:06:37.013Z,15.12
2022-09-11T21:09:08.762Z,15.07
2022-09-11T21:11:35.651Z,15.08
2022-09-11T21:14:02.138Z,14.99
2022-09-11T21:16:29.195Z,14.95
2022-09-11T21:18:58.303Z,14.94
2022-09-11T21:21:26.351Z,14.91
2022-09-11T21:23:57.680Z,14.88
2022-09-11T21:26:26.070Z,14.81
2022-09-11T21:28:52.685Z,14.77
2022-09-11T21:31:19.632Z,14.74
2022-09-11T21:33:46.201Z,14.68
2022-09-11T21:36:12.905Z,14.63
2022-09-11T21:38:39.702Z,14.63
2022-09-11T21:41:09.321Z,14.60
2022-09-11T21:43:36.309Z,14.59
2022-09-11T21:46:04.425Z,14.56
2022-09-11T21:48:35.728Z,14.55
2022-09-11T21:51:17.163Z,14.53
2022-09-11T21:53:45.642Z,14.49
2022-09-11T21:56:18.227Z,14.45
2022-09-11T21:58:44.639Z,14.44
2022-09-11T22:01:11.149Z,14.39
2022-09-11T22:03:37.528Z,14.36
2022-09-11T22:06:08.054Z,14.33
2022-09-11T22:08:35.359Z,14.26
2022-09-11T22:11:03.239Z,14.23
2022-09-11T22:13:29.740Z,14.19
2022-09-11T22:15:56.534Z,14.17
2022-09-11T22:18:22.986Z,14.15
2022-09-11T22:20:49.515Z,14.09
2022-09-11T22:23:18.116Z,14.06
2022-09-11T22:25:45.253Z,14.01
2022-09-11T22:28:11.892Z,13.95
2022-09-11T22:30:42.766Z,13.87
2022-09-11T22:33:10.069Z,13.78
2022-09-11T22:35:36.500Z,13.78
2022-09-11T22:38:02.863Z,13.78
2022-09-11T22:40:29.263Z,13.72
2022-09-11T22:42:55.627Z,13.69
2022-09-11T22:45:22.049Z,13.65
2022-09-11T22:47:48.407Z,13.63
2022-09-11T22:50:14.790Z,13.63
2022-09-11T22:52:41.312Z,13.61
2022-09-11T22:55:08.387Z,13.59
2022-09-11T22:57:38.519Z,13.58
2022-09-11T23:00:06.571Z,13.55
2022-09-11T23:02:32.964Z,13.53
2022-09-11T23:05:17.677Z,13.51
2022-09-11T23:07:44.798Z,13.50
2022-09-11T23:10:12.203Z,13.50
2022-09-11T23:12:38.807Z,13.47
2022-09-11T23:15:06.574Z,13.46
2022-09-11T23:17:33.430Z,13.43
2022-09-11T23:19:59.856Z,13.39
2022-09-11T23:22:27.219Z,13.35
2022-09-11T23:24:54.031Z,13.31
2022-09-11T23:27:20.526Z,13.32
2022-09-11T23:29:46.925Z,13.29
2022-09-11T23:32:13.379Z,13.27
2022-09-11T23:34:39.852Z,13.20
2022-09-11T23:37:06.536Z,13.17
2022-09-11T23:39:32.961Z,13.12
2022-09-11T23:41:59.328Z,13.10
2022-09-11T23:44:25.741Z,13.02
2022-09-11T23:46:52.110Z,13.00
2022-09-11T23:49:18.826Z,13.00
2022-09-11T23:51:46.852Z,12.98
2022-09-11T23:54:13.276Z,12.97
2022-09-11T23:56:39.641Z,12.93
2022-09-11T23:59:06.552Z,12.90
